sensor_id;sensor_type;location;lat;lon;timestamp;pressure;altitude;pressure_sealevel;temperature;humidity
19447;BME280;9862;49.462;11.054;2023-05-07T00:00:49;98038.91;;;18.47;100.00
19447;BME280;9862;49.462;11.054;2023-05-07T00:03:17;98044.84;;;18.44;100.00
19447;BME280;9862;49.462;11.054;2023-05-07T00:05:44;98043.19;;;18.43;100.00
19447;BME280;9862;49.462;11.054;2023-05-07T00:08:11;98047.25;;;18.45;100.00
19447;BME280;9862;49.462;11.054;2023-05-07T00:10:38;98042.13;;;18.44;100.00
19447;BME280;9862;49.462;11.054;2023-05-07T00:13:04;98042.13;;;18.44;100.00
19447;BME280;9862;49.462;11.054;2023-05-07T00:15:31;98040.25;;;18.44;100.00
19447;BME280;9862;49.462;11.054;2023-05-07T00:17:58;98033.53;;;18.47;100.00
19447;BME280;9862;49.462;11.054;2023-05-07T00:20:26;98040.25;;;18.44;100.00
19447;BME280;9862;49.462;11.054;2023-05-07T00:22:53;98040.00;;;18.46;100.00
19447;BME280;9862;49.462;11.054;2023-05-07T00:25:19;98049.09;;;18.40;100.00
19447;BME280;9862;49.462;11.054;2023-05-07T00:27:46;98045.84;;;18.38;100.00
19447;BME280;9862;49.462;11.054;2023-05-07T00:30:13;98057.41;;;18.33;100.00
19447;BME280;9862;49.462;11.054;2023-05-07T00:32:39;98049.03;;;18.29;100.00
19447;BME280;9862;49.462;11.054;2023-05-07T00:35:07;98041.50;;;18.31;100.00
19447;BME280;9862;49.462;11.054;2023-05-07T00:37:35;98040.41;;;18.33;100.00
19447;BME280;9862;49.462;11.054;2023-05-07T00:40:02;98046.59;;;18.28;100.00
19447;BME280;9862;49.462;11.054;2023-05-07T00:42:32;98049.03;;;18.29;100.00
19447;BME280;9862;49.462;11.054;2023-05-07T00:44:59;98058.72;;;18.30;100.00
19447;BME280;9862;49.462;11.054;2023-05-07T00:47:25;98052.59;;;18.35;100.00
19447;BME280;9862;49.462;11.054;2023-05-07T00:49:52;98056.63;;;18.38;100.00
19447;BME280;9862;49.462;11.054;2023-05-07T00:52:20;98046.41;;;18.40;100.00
19447;BME280;9862;49.462;11.054;2023-05-07T00:54:49;98046.66;;;18.38;100.00
19447;BME280;9862;49.462;11.054;2023-05-07T00:57:15;98037.50;;;18.39;100.00
19447;BME280;9862;49.462;11.054;2023-05-07T00:59:42;98043.19;;;18.43;100.00
19447;BME280;9862;49.462;11.054;2023-05-07T01:02:09;98038.31;;;18.40;100.00
19447;BME280;9862;49.462;11.054;2023-05-07T01:04:36;98028.63;;;18.39;100.00
19447;BME280;9862;49.462;11.054;2023-05-07T01:07:03;98031.03;;;18.35;100.00
19447;BME280;9862;49.462;11.054;2023-05-07T01:09:31;98030.16;;;18.29;100.00
19447;BME280;9862;49.462;11.054;2023-05-07T01:12:01;98025.31;;;18.31;100.00
19447;BME280;9862;49.462;11.054;2023-05-07T01:14:29;98023.41;;;18.27;100.00
19447;BME280;9862;49.462;11.054;2023-05-07T01:16:56;98021.81;;;18.31;100.00
19447;BME280;9862;49.462;11.054;2023-05-07T01:19:23;98020.66;;;18.22;100.00
19447;BME280;9862;49.462;11.054;2023-05-07T01:21:56;98012.56;;;18.17;100.00
19447;BME280;9862;49.462;11.054;2023-05-07T01:24:29;98022.28;;;18.18;100.00
19447;BME280;9862;49.462;11.054;2023-05-07T01:26:56;98026.03;;;18.17;100.00
19447;BME280;9862;49.462;11.054;2023-05-07T01:29:23;98024.75;;;18.24;100.00
19447;BME280;9862;49.462;11.054;2023-05-07T01:31:50;98018.75;;;18.17;100.00
19447;BME280;9862;49.462;11.054;2023-05-07T01:34:20;98019.31;;;18.19;100.00
19447;BME280;9862;49.462;11.054;2023-05-07T01:36:48;98023.28;;;18.12;100.00
19447;BME280;9862;49.462;11.054;2023-05-07T01:39:15;98034.88;;;18.12;100.00
19447;BME280;9862;49.462;11.054;2023-05-07T01:41:44;98025.16;;;18.11;100.00
19447;BME280;9862;49.462;11.054;2023-05-07T01:44:12;98011.97;;;18.10;100.00
19447;BME280;9862;49.462;11.054;2023-05-07T01:46:39;98015.47;;;18.10;100.00
19447;BME280;9862;49.462;11.054;2023-05-07T01:49:05;98011.97;;;18.10;100.00
19447;BME280;9862;49.462;11.054;2023-05-07T01:51:32;98014.94;;;18.13;100.00
19447;BME280;9862;49.462;11.054;2023-05-07T01:53:59;98013.78;;;18.04;100.00
19447;BME280;9862;49.462;11.054;2023-05-07T01:56:26;98026.72;;;18.02;100.00
19447;BME280;9862;49.462;11.054;2023-05-07T01:58:54;98013.31;;;18.07;100.00
19447;BME280;9862;49.462;11.054;2023-05-07T02:01:21;98015.44;;;18.05;100.00
19447;BME280;9862;49.462;11.054;2023-05-07T02:03:47;98025.88;;;17.96;100.00
19447;BME280;9862;49.462;11.054;2023-05-07T02:06:14;98018.59;;;17.97;100.00
19447;BME280;9862;49.462;11.054;2023-05-07T02:08:42;98010.47;;;17.92;100.00
19447;BME280;9862;49.462;11.054;2023-05-07T02:11:10;98016.91;;;17.86;100.00
19447;BME280;9862;49.462;11.054;2023-05-07T02:13:37;98014.94;;;17.81;100.00
19447;BME280;9862;49.462;11.054;2023-05-07T02:16:07;98024.19;;;17.90;100.00
19447;BME280;9862;49.462;11.054;2023-05-07T02:18:34;98025.00;;;17.91;100.00
19447;BME280;9862;49.462;11.054;2023-05-07T02:21:02;98025.00;;;17.91;100.00
19447;BME280;9862;49.462;11.054;2023-05-07T02:23:29;98018.00;;;17.90;100.00
19447;BME280;9862;49.462;11.054;2023-05-07T02:25:56;98020.44;;;17.91;100.00
19447;BME280;9862;49.462;11.054;2023-05-07T02:28:22;98014.88;;;18.03;100.00
19447;BME280;9862;49.462;11.054;2023-05-07T02:30:49;98018.53;;;17.92;100.00
19447;BME280;9862;49.462;11.054;2023-05-07T02:33:17;98018.81;;;17.90;100.00
19447;BME280;9862;49.462;11.054;2023-05-07T02:35:44;98020.94;;;17.88;100.00
19447;BME280;9862;49.462;11.054;2023-05-07T02:38:10;98022.56;;;17.89;100.00
19447;BME280;9862;49.462;11.054;2023-05-07T02:40:37;98016.91;;;17.86;100.00
19447;BME280;9862;49.462;11.054;2023-05-07T02:43:05;98013.63;;;17.84;100.00
19447;BME280;9862;49.462;11.054;2023-05-07T02:45:31;98012.88;;;17.88;100.00
19447;BME280;9862;49.462;11.054;2023-05-07T02:47:58;98022.81;;;17.88;100.00
19447;BME280;9862;49.462;11.054;2023-05-07T02:50:27;98020.69;;;17.90;100.00
19447;BME280;9862;49.462;11.054;2023-05-07T02:52:53;98019.00;;;17.84;100.00
19447;BME280;9862;49.462;11.054;2023-05-07T02:55:20;98020.03;;;17.78;100.00
19447;BME280;9862;49.462;11.054;2023-05-07T02:57:47;98014.09;;;17.76;100.00
19447;BME280;9862;49.462;11.054;2023-05-07T03:00:15;98011.91;;;17.72;100.00
19447;BME280;9862;49.462;11.054;2023-05-07T03:02:43;98011.38;;;17.76;100.00
19447;BME280;9862;49.462;11.054;2023-05-07T03:05:09;98009.28;;;17.78;100.00
19447;BME280;9862;49.462;11.054;2023-05-07T03:07:38;98023.28;;;17.80;100.00
19447;BME280;9862;49.462;11.054;2023-05-07T03:10:05;98019.31;;;17.60;100.00
19447;BME280;9862;49.462;11.054;2023-05-07T03:12:32;98013.81;;;17.50;100.00
19447;BME280;9862;49.462;11.054;2023-05-07T03:14:58;98016.44;;;17.45;100.00
19447;BME280;9862;49.462;11.054;2023-05-07T03:17:25;98018.03;;;17.41;100.00
19447;BME280;9862;49.462;11.054;2023-05-07T03:19:51;98022.34;;;17.42;100.00
19447;BME280;9862;49.462;11.054;2023-05-07T03:22:18;98017.22;;;17.40;100.00
19447;BME280;9862;49.462;11.054;2023-05-07T03:24:47;98020.41;;;17.37;100.00
19447;BME280;9862;49.462;11.054;2023-05-07T03:27:13;98015.25;;;17.36;100.00
19447;BME280;9862;49.462;11.054;2023-05-07T03:29:40;98014.19;;;17.37;100.00
19447;BME280;9862;49.462;11.054;2023-05-07T03:32:06;98019.34;;;17.38;100.00
19447;BME280;9862;49.462;11.054;2023-05-07T03:34:33;98010.50;;;17.43;100.00
19447;BME280;9862;49.462;11.054;2023-05-07T03:37:00;98007.88;;;17.48;100.00
19447;BME280;9862;49.462;11.054;2023-05-07T03:39:26;98008.38;;;17.45;100.00
19447;BME280;9862;49.462;11.054;2023-05-07T03:41:54;98013.25;;;17.48;100.00
19447;BME280;9862;49.462;11.054;2023-05-07T03:44:21;98011.84;;;17.40;100.00
19447;BME280;9862;49.462;11.054;2023-05-07T03:46:47;98009.66;;;17.37;100.00
19447;BME280;9862;49.462;11.054;2023-05-07T03:49:14;98014.47;;;17.35;100.00
19447;BME280;9862;49.462;11.054;2023-05-07T03:51:40;98015.53;;;17.34;100.00
19447;BME280;9862;49.462;11.054;2023-05-07T03:54:07;98016.34;;;17.35;100.00
19447;BME280;9862;49.462;11.054;2023-05-07T03:56:34;98029.75;;;17.30;100.00
19447;BME280;9862;49.462;11.054;2023-05-07T03:59:02;98029.84;;;17.40;100.00
19447;BME280;9862;49.462;11.054;2023-05-07T04:01:28;98028.13;;;17.29;100.00
19447;BME280;9862;49.462;11.054;2023-05-07T04:03:55;98033.44;;;17.24;100.00
19447;BME280;9862;49.462;11.054;2023-05-07T04:06:22;98037.75;;;17.25;100.00
19447;BME280;9862;49.462;11.054;2023-05-07T04:08:49;98040.97;;;17.27;100.00
19447;BME280;9862;49.462;11.054;2023-05-07T04:11:16;98048.03;;;17.28;100.00
19447;BME280;9862;49.462;11.054;2023-05-07T04:13:42;98046.88;;;17.24;100.00
19447;BME280;9862;49.462;11.054;2023-05-07T04:16:10;98050.88;;;17.21;100.00
19447;BME280;9862;49.462;11.054;2023-05-07T04:18:37;98053.31;;;17.23;100.00
19447;BME280;9862;49.462;11.054;2023-05-07T04:21:03;98054.69;;;17.25;100.00
19447;BME280;9862;49.462;11.054;2023-05-07T04:23:30;98067.88;;;17.27;100.00
19447;BME280;9862;49.462;11.054;2023-05-07T04:25:57;98061.75;;;17.31;100.00
19447;BME280;9862;49.462;11.054;2023-05-07T04:28:23;98056.94;;;17.33;100.00
19447;BME280;9862;49.462;11.054;2023-05-07T04:30:51;98062.88;;;17.35;100.00
19447;BME280;9862;49.462;11.054;2023-05-07T04:33:18;98064.19;;;17.33;100.00
19447;BME280;9862;49.462;11.054;2023-05-07T04:35:45;98066.38;;;17.36;100.00
19447;BME280;9862;49.462;11.054;2023-05-07T04:38:12;98068.22;;;17.30;100.00
19447;BME280;9862;49.462;11.054;2023-05-07T04:40:38;98073.97;;;17.39;100.00
19447;BME280;9862;49.462;11.054;2023-05-07T04:43:05;98073.09;;;17.33;100.00
19447;BME280;9862;49.462;11.054;2023-05-07T04:45:32;98062.88;;;17.35;100.00
19447;BME280;9862;49.462;11.054;2023-05-07T04:47:59;98072.56;;;17.36;100.00
19447;BME280;9862;49.462;11.054;2023-05-07T04:50:27;98074.41;;;17.31;100.00
19447;BME280;9862;49.462;11.054;2023-05-07T04:52:53;98079.28;;;17.34;100.00
19447;BME280;9862;49.462;11.054;2023-05-07T04:55:20;98079.78;;;17.31;100.00
19447;BME280;9862;49.462;11.054;2023-05-07T04:57:46;98076.03;;;17.32;100.00
19447;BME280;9862;49.462;11.054;2023-05-07T05:00:13;98082.53;;;17.36;100.00
19447;BME280;9862;49.462;11.054;2023-05-07T05:02:40;98085.22;;;17.36;100.00
19447;BME280;9862;49.462;11.054;2023-05-07T05:05:07;98083.91;;;17.38;100.00
19447;BME280;9862;49.462;11.054;2023-05-07T05:07:35;98089.59;;;17.42;100.00
19447;BME280;9862;49.462;11.054;2023-05-07T05:10:03;98082.34;;;17.42;100.00
19447;BME280;9862;49.462;11.054;2023-05-07T05:12:29;98079.94;;;17.46;100.00
19447;BME280;9862;49.462;11.054;2023-05-07T05:14:56;98084.28;;;17.47;100.00
19447;BME280;9862;49.462;11.054;2023-05-07T05:17:23;98082.16;;;17.49;100.00
19447;BME280;9862;49.462;11.054;2023-05-07T05:19:49;98084.53;;;17.45;100.00
19447;BME280;9862;49.462;11.054;2023-05-07T05:22:16;98088.28;;;17.44;100.00
19447;BME280;9862;49.462;11.054;2023-05-07T05:24:44;98089.16;;;17.50;100.00
19447;BME280;9862;49.462;11.054;2023-05-07T05:27:10;98076.25;;;17.52;100.00
19447;BME280;9862;49.462;11.054;2023-05-07T05:29:37;98085.41;;;17.51;100.00
19447;BME280;9862;49.462;11.054;2023-05-07T05:32:04;98082.97;;;17.50;100.00
19447;BME280;9862;49.462;11.054;2023-05-07T05:34:30;98087.03;;;17.52;100.00
19447;BME280;9862;49.462;11.054;2023-05-07T05:36:58;98101.28;;;17.53;100.00
19447;BME280;9862;49.462;11.054;2023-05-07T05:39:25;98092.91;;;17.49;100.00
19447;BME280;9862;49.462;11.054;2023-05-07T05:41:53;98091.78;;;17.45;100.00
19447;BME280;9862;49.462;11.054;2023-05-07T05:44:20;98095.78;;;17.42;100.00
19447;BME280;9862;49.462;11.054;2023-05-07T05:46:46;98093.09;;;17.42;100.00
19447;BME280;9862;49.462;11.054;2023-05-07T05:49:14;98091.47;;;17.41;100.00
19447;BME280;9862;49.462;11.054;2023-05-07T05:51:41;98092.59;;;17.45;100.00
19447;BME280;9862;49.462;11.054;2023-05-07T05:54:08;98099.13;;;17.50;100.00
19447;BME280;9862;49.462;11.054;2023-05-07T05:56:34;98098.75;;;17.41;100.00
19447;BME280;9862;49.462;11.054;2023-05-07T05:59:02;98093.78;;;17.33;100.00
19447;BME280;9862;49.462;11.054;2023-05-07T06:01:30;98098.66;;;17.36;100.00
19447;BME280;9862;49.462;11.054;2023-05-07T06:03:57;98088.22;;;17.39;100.00
19447;BME280;9862;49.462;11.054;2023-05-07T06:06:23;98096.69;;;17.48;100.00
19447;BME280;9862;49.462;11.054;2023-05-07T06:08:51;98098.09;;;17.56;100.00
19447;BME280;9862;49.462;11.054;2023-05-07T06:11:18;98104.34;;;17.61;100.00
19447;BME280;9862;49.462;11.054;2023-05-07T06:13:45;98083.72;;;17.67;100.00
19447;BME280;9862;49.462;11.054;2023-05-07T06:16:13;98095.91;;;17.74;100.00
19447;BME280;9862;49.462;11.054;2023-05-07T06:18:40;98084.66;;;17.78;100.00
19447;BME280;9862;49.462;11.054;2023-05-07T06:21:06;98092.78;;;17.83;100.00
19447;BME280;9862;49.462;11.054;2023-05-07T06:23:33;98086.91;;;17.86;100.00
19447;BME280;9862;49.462;11.054;2023-05-07T06:26:00;98090.41;;;17.86;100.00
19447;BME280;9862;49.462;11.054;2023-05-07T06:28:27;98106.59;;;17.91;100.00
19447;BME280;9862;49.462;11.054;2023-05-07T06:30:56;98101.50;;;17.95;100.00
19447;BME280;9862;49.462;11.054;2023-05-07T06:33:38;98108.03;;;17.99;100.00
19447;BME280;9862;49.462;11.054;2023-05-07T06:36:05;98112.97;;;18.12;100.00
19447;BME280;9862;49.462;11.054;2023-05-07T06:38:32;98104.91;;;18.12;100.00
19447;BME280;9862;49.462;11.054;2023-05-07T06:40:58;98125.09;;;18.10;100.00
19447;BME280;9862;49.462;11.054;2023-05-07T06:43:25;98115.66;;;18.07;100.00
19447;BME280;9862;49.462;11.054;2023-05-07T06:45:51;98122.13;;;18.11;100.00
19447;BME280;9862;49.462;11.054;2023-05-07T06:48:18;98126.50;;;18.17;100.00
19447;BME280;9862;49.462;11.054;2023-05-07T06:50:46;98126.44;;;18.12;100.00
19447;BME280;9862;49.462;11.054;2023-05-07T06:53:13;98125.44;;;18.18;100.00
19447;BME280;9862;49.462;11.054;2023-05-07T06:55:39;98124.31;;;18.14;100.00
19447;BME280;9862;49.462;11.054;2023-05-07T06:58:06;98123.94;;;18.33;100.00
19447;BME280;9862;49.462;11.054;2023-05-07T07:00:33;98124.09;;;18.48;100.00
19447;BME280;9862;49.462;11.054;2023-05-07T07:03:00;98123.53;;;18.46;100.00
19447;BME280;9862;49.462;11.054;2023-05-07T07:05:26;98121.91;;;18.45;100.00
19447;BME280;9862;49.462;11.054;2023-05-07T07:07:54;98125.16;;;18.47;100.00
19447;BME280;9862;49.462;11.054;2023-05-07T07:10:22;98131.66;;;18.51;100.00
19447;BME280;9862;49.462;11.054;2023-05-07T07:12:49;98128.94;;;18.46;100.00
19447;BME280;9862;49.462;11.054;2023-05-07T07:15:16;98128.41;;;18.49;100.00
19447;BME280;9862;49.462;11.054;2023-05-07T07:17:42;98124.16;;;18.53;100.00
19447;BME280;9862;49.462;11.054;2023-05-07T07:20:10;98123.63;;;18.56;100.00
19447;BME280;9862;49.462;11.054;2023-05-07T07:22:37;98127.50;;;18.65;100.00
19447;BME280;9862;49.462;11.054;2023-05-07T07:25:05;98131.63;;;18.78;100.00
19447;BME280;9862;49.462;11.054;2023-05-07T07:27:32;98128.22;;;18.93;100.00
19447;BME280;9862;49.462;11.054;2023-05-07T07:29:59;98122.31;;;19.01;100.00
19447;BME280;9862;49.462;11.054;2023-05-07T07:32:25;98125.63;;;19.08;100.00
19447;BME280;9862;49.462;11.054;2023-05-07T07:34:52;98115.41;;;19.15;100.00
19447;BME280;9862;49.462;11.054;2023-05-07T07:37:18;98112.72;;;19.20;100.00
19447;BME280;9862;49.462;11.054;2023-05-07T07:39:45;98114.88;;;19.18;100.00
19447;BME280;9862;49.462;11.054;2023-05-07T07:42:13;98121.88;;;19.19;100.00
19447;BME280;9862;49.462;11.054;2023-05-07T07:44:39;98129.97;;;19.14;100.00
19447;BME280;9862;49.462;11.054;2023-05-07T07:47:06;98132.34;;;19.10;100.00
19447;BME280;9862;49.462;11.054;2023-05-07T07:49:32;98128.34;;;19.13;100.00
19447;BME280;9862;49.462;11.054;2023-05-07T07:51:59;98124.03;;;19.17;100.00
19447;BME280;9862;49.462;11.054;2023-05-07T07:54:26;98128.38;;;19.18;100.00
19447;BME280;9862;49.462;11.054;2023-05-07T07:56:52;98127.28;;;19.19;100.00
19447;BME280;9862;49.462;11.054;2023-05-07T07:59:20;98123.09;;;19.49;100.00
19447;BME280;9862;49.462;11.054;2023-05-07T08:01:47;98116.81;;;19.95;100.00
19447;BME280;9862;49.462;11.054;2023-05-07T08:04:15;98111.47;;;20.31;100.00
19447;BME280;9862;49.462;11.054;2023-05-07T08:06:41;98112.31;;;20.52;100.00
19447;BME280;9862;49.462;11.054;2023-05-07T08:09:08;98099.84;;;20.81;100.00
19447;BME280;9862;49.462;11.054;2023-05-07T08:11:35;98109.22;;;21.35;100.00
19447;BME280;9862;49.462;11.054;2023-05-07T08:14:01;98111.13;;;21.19;100.00
19447;BME280;9862;49.462;11.054;2023-05-07T08:16:30;98115.47;;;21.15;100.00
19447;BME280;9862;49.462;11.054;2023-05-07T08:18:56;98110.31;;;21.19;100.00
19447;BME280;9862;49.462;11.054;2023-05-07T08:21:23;98117.09;;;21.26;100.00
19447;BME280;9862;49.462;11.054;2023-05-07T08:23:49;98123.28;;;21.22;100.00
19447;BME280;9862;49.462;11.054;2023-05-07T08:26:16;98123.28;;;21.32;100.00
19447;BME280;9862;49.462;11.054;2023-05-07T08:28:42;98128.16;;;21.30;100.00
19447;BME280;9862;49.462;11.054;2023-05-07T08:31:09;98123.00;;;21.38;100.00
19447;BME280;9862;49.462;11.054;2023-05-07T08:33:37;98125.38;;;21.50;100.00
19447;BME280;9862;49.462;11.054;2023-05-07T08:36:04;98129.47;;;21.53;100.00
19447;BME280;9862;49.462;11.054;2023-05-07T08:38:31;98135.09;;;21.61;100.00
19447;BME280;9862;49.462;11.054;2023-05-07T08:40:57;98132.66;;;21.65;100.00
19447;BME280;9862;49.462;11.054;2023-05-07T08:43:26;98137.81;;;21.61;100.00
19447;BME280;9862;49.462;11.054;2023-05-07T08:45:54;98131.84;;;21.59;100.00
19447;BME280;9862;49.462;11.054;2023-05-07T08:48:22;98128.66;;;21.47;100.00
19447;BME280;9862;49.462;11.054;2023-05-07T08:50:52;98135.19;;;21.21;100.00
19447;BME280;9862;49.462;11.054;2023-05-07T08:53:20;98131.19;;;21.08;100.00
19447;BME280;9862;49.462;11.054;2023-05-07T08:55:47;98124.19;;;20.97;100.00
19447;BME280;9862;49.462;11.054;2023-05-07T08:58:14;98129.31;;;20.93;100.00
19447;BME280;9862;49.462;11.054;2023-05-07T09:00:41;98120.66;;;20.96;100.00
19447;BME280;9862;49.462;11.054;2023-05-07T09:03:08;98117.41;;;20.89;100.00
19447;BME280;9862;49.462;11.054;2023-05-07T09:05:37;98110.13;;;20.84;100.00
19447;BME280;9862;49.462;11.054;2023-05-07T09:08:07;98119.06;;;20.80;100.00
19447;BME280;9862;49.462;11.054;2023-05-07T09:10:34;98111.50;;;20.77;100.00
19447;BME280;9862;49.462;11.054;2023-05-07T09:13:02;98123.41;;;20.76;100.00
19447;BME280;9862;49.462;11.054;2023-05-07T09:15:29;98118.25;;;20.79;100.00
19447;BME280;9862;49.462;11.054;2023-05-07T09:17:59;98125.00;;;20.77;100.00
19447;BME280;9862;49.462;11.054;2023-05-07T09:20:26;98119.34;;;20.78;100.00
19447;BME280;9862;49.462;11.054;2023-05-07T09:22:55;98115.28;;;20.86;100.00
19447;BME280;9862;49.462;11.054;2023-05-07T09:25:29;98120.13;;;20.94;100.00
19447;BME280;9862;49.462;11.054;2023-05-07T09:27:56;98111.44;;;21.07;100.00
19447;BME280;9862;49.462;11.054;2023-05-07T09:30:22;98104.66;;;21.15;100.00
19447;BME280;9862;49.462;11.054;2023-05-07T09:32:49;98102.22;;;21.13;100.00
19447;BME280;9862;49.462;11.054;2023-05-07T09:35:17;98101.16;;;21.04;100.00
19447;BME280;9862;49.462;11.054;2023-05-07T09:37:46;98098.19;;;21.06;100.00
19447;BME280;9862;49.462;11.054;2023-05-07T09:40:20;98099.22;;;21.20;100.00
19447;BME280;9862;49.462;11.054;2023-05-07T09:42:49;98100.84;;;21.26;100.00
19447;BME280;9862;49.462;11.054;2023-05-07T09:45:21;98093.03;;;21.04;100.00
19447;BME280;9862;49.462;11.054;2023-05-07T09:47:48;98099.00;;;21.01;100.00
19447;BME280;9862;49.462;11.054;2023-05-07T09:50:16;98096.00;;;21.03;100.00
19447;BME280;9862;49.462;11.054;2023-05-07T09:52:44;98095.44;;;21.16;100.00
19447;BME280;9862;49.462;11.054;2023-05-07T09:55:12;98101.66;;;21.27;100.00
19447;BME280;9862;49.462;11.054;2023-05-07T09:57:40;98095.41;;;21.36;100.00
19447;BME280;9862;49.462;11.054;2023-05-07T10:00:10;98088.88;;;21.42;100.00
19447;BME280;9862;49.462;11.054;2023-05-07T10:02:38;98088.28;;;21.51;100.00
19447;BME280;9862;49.462;11.054;2023-05-07T10:05:12;98093.69;;;21.51;100.00
19447;BME280;9862;49.462;11.054;2023-05-07T10:07:39;98091.03;;;21.46;100.00
19447;BME280;9862;49.462;11.054;2023-05-07T10:10:08;98093.19;;;21.49;100.00
19447;BME280;9862;49.462;11.054;2023-05-07T10:12:35;98110.22;;;21.49;100.00
19447;BME280;9862;49.462;11.054;2023-05-07T10:15:06;98097.22;;;21.51;100.00
19447;BME280;9862;49.462;11.054;2023-05-07T10:17:35;98092.84;;;21.65;100.00
19447;BME280;9862;49.462;11.054;2023-05-07T10:20:02;98091.66;;;21.82;100.00
19447;BME280;9862;49.462;11.054;2023-05-07T10:22:30;98091.84;;;21.95;100.00
19447;BME280;9862;49.462;11.054;2023-05-07T10:24:59;98096.47;;;21.95;100.00
19447;BME280;9862;49.462;11.054;2023-05-07T10:27:29;98094.84;;;21.89;100.00
19447;BME280;9862;49.462;11.054;2023-05-07T10:30:03;98087.75;;;21.98;100.00
19447;BME280;9862;49.462;11.054;2023-05-07T10:32:38;98093.22;;;21.93;100.00
19447;BME280;9862;49.462;11.054;2023-05-07T10:35:10;98094.84;;;21.94;100.00
19447;BME280;9862;49.462;11.054;2023-05-07T10:37:37;98091.00;;;22.00;100.00
19447;BME280;9862;49.462;11.054;2023-05-07T10:40:05;98085.56;;;22.05;100.00
19447;BME280;9862;49.462;11.054;2023-05-07T10:42:32;98088.25;;;22.05;100.00
19447;BME280;9862;49.462;11.054;2023-05-07T10:45:11;98087.97;;;22.12;100.00
19447;BME280;9862;49.462;11.054;2023-05-07T10:48:05;98085.28;;;22.12;100.00
19447;BME280;9862;49.462;11.054;2023-05-07T10:50:32;98092.03;;;22.09;100.00
19447;BME280;9862;49.462;11.054;2023-05-07T10:53:21;98080.13;;;22.05;100.00
19447;BME280;9862;49.462;11.054;2023-05-07T10:55:50;98079.31;;;22.10;100.00
19447;BME280;9862;49.462;11.054;2023-05-07T10:58:23;98081.50;;;22.03;100.00
19447;BME280;9862;49.462;11.054;2023-05-07T11:00:56;98077.44;;;22.00;100.00
19447;BME280;9862;49.462;11.054;2023-05-07T11:03:24;98072.56;;;22.07;100.00
19447;BME280;9862;49.462;11.054;2023-05-07T11:06:09;98076.00;;;22.18;100.00
19447;BME280;9862;49.462;11.054;2023-05-07T11:08:55;98072.75;;;22.21;100.00
19447;BME280;9862;49.462;11.054;2023-05-07T11:11:46;98077.78;;;22.33;100.00
19447;BME280;9862;49.462;11.054;2023-05-07T11:14:13;98073.03;;;22.48;100.00
19447;BME280;9862;49.462;11.054;2023-05-07T11:16:41;98060.00;;;22.50;100.00
19447;BME280;9862;49.462;11.054;2023-05-07T11:19:10;98063.19;;;22.57;100.00
19447;BME280;9862;49.462;11.054;2023-05-07T11:21:38;98059.34;;;22.64;100.00
19447;BME280;9862;49.462;11.054;2023-05-07T11:24:06;98063.84;;;22.73;100.00
19447;BME280;9862;49.462;11.054;2023-05-07T11:26:45;98049.97;;;22.80;100.00
19447;BME280;9862;49.462;11.054;2023-05-07T11:29:13;98046.78;;;22.73;100.00
19447;BME280;9862;49.462;11.054;2023-05-07T11:31:40;98044.81;;;22.78;100.00
19447;BME280;9862;49.462;11.054;2023-05-07T11:34:08;98048.59;;;22.77;100.00
19447;BME280;9862;49.462;11.054;2023-05-07T11:36:41;98053.88;;;22.98;100.00
19447;BME280;9862;49.462;11.054;2023-05-07T11:39:23;98055.72;;;23.02;100.00
19447;BME280;9862;49.462;11.054;2023-05-07T11:41:50;98052.81;;;22.94;100.00
19447;BME280;9862;49.462;11.054;2023-05-07T11:44:17;98050.72;;;22.85;100.00
19447;BME280;9862;49.462;11.054;2023-05-07T11:46:43;98054.00;;;22.88;100.00
19447;BME280;9862;49.462;11.054;2023-05-07T11:49:10;98044.81;;;22.78;100.00
19447;BME280;9862;49.462;11.054;2023-05-07T11:51:39;98053.28;;;22.72;100.00
19447;BME280;9862;49.462;11.054;2023-05-07T11:54:08;98050.28;;;22.73;100.00
19447;BME280;9862;49.462;11.054;2023-05-07T11:56:37;98046.25;;;22.71;100.00
19447;BME280;9862;49.462;11.054;2023-05-07T11:59:04;98043.69;;;22.84;100.00
19447;BME280;9862;49.462;11.054;2023-05-07T12:01:31;98048.50;;;22.93;100.00
19447;BME280;9862;49.462;11.054;2023-05-07T12:03:57;98052.81;;;22.94;100.00
19447;BME280;9862;49.462;11.054;2023-05-07T12:06:24;98051.44;;;22.96;100.00
19447;BME280;9862;49.462;11.054;2023-05-07T12:08:53;98042.47;;;22.96;100.00
19447;BME280;9862;49.462;11.054;2023-05-07T12:11:23;98042.94;;;23.03;100.00
19447;BME280;9862;49.462;11.054;2023-05-07T12:13:50;98049.53;;;22.97;100.00
19447;BME280;9862;49.462;11.054;2023-05-07T12:16:17;98049.88;;;22.90;100.00
19447;BME280;9862;49.462;11.054;2023-05-07T12:18:44;98050.19;;;22.89;100.00
19447;BME280;9862;49.462;11.054;2023-05-07T12:21:11;98046.38;;;22.90;100.00
19447;BME280;9862;49.462;11.054;2023-05-07T12:23:38;98044.97;;;22.92;100.00
19447;BME280;9862;49.462;11.054;2023-05-07T12:26:06;98046.94;;;23.10;100.00
19447;BME280;9862;49.462;11.054;2023-05-07T12:28:37;98038.31;;;23.27;100.00
19447;BME280;9862;49.462;11.054;2023-05-07T12:31:05;98034.56;;;23.23;100.00
19447;BME280;9862;49.462;11.054;2023-05-07T12:33:32;98039.00;;;23.14;100.00
19447;BME280;9862;49.462;11.054;2023-05-07T12:36:02;98029.97;;;23.00;100.00
19447;BME280;9862;49.462;11.054;2023-05-07T12:38:34;98037.16;;;22.85;100.00
19447;BME280;9862;49.462;11.054;2023-05-07T12:41:01;98039.09;;;22.80;100.00
19447;BME280;9862;49.462;11.054;2023-05-07T12:43:29;98044.69;;;22.65;100.00
19447;BME280;9862;49.462;11.054;2023-05-07T12:45:58;98036.59;;;22.60;100.00
19447;BME280;9862;49.462;11.054;2023-05-07T12:48:26;98037.97;;;22.57;100.00
19447;BME280;9862;49.462;11.054;2023-05-07T12:50:53;98040.66;;;22.57;100.00
19447;BME280;9862;49.462;11.054;2023-05-07T12:53:21;98034.22;;;22.53;100.00